createdAt,value
2023-05-24T00:00:33.044Z,322.40
2023-05-24T00:03:02.877Z,321.03
2023-05-24T00:05:31.323Z,314.87
2023-05-24T00:08:01.291Z,317.93
2023-05-24T00:10:29.365Z,320.40
2023-05-24T00:12:57.423Z,317.53
2023-05-24T00:15:25.672Z,326.07
2023-05-24T00:17:53.746Z,318.43
2023-05-24T00:20:21.839Z,318.10
2023-05-24T00:22:49.892Z,317.23
2023-05-24T00:25:19.316Z,310.97
2023-05-24T00:27:47.675Z,318.63
2023-05-24T00:30:15.879Z,316.50
2023-05-24T00:32:43.923Z,320.50
2023-05-24T00:35:12.035Z,317.63
2023-05-24T00:37:41.935Z,314.60
2023-05-24T00:40:11.153Z,322.00
2023-05-24T00:42:40.614Z,312.03
2023-05-24T00:45:11.318Z,311.63
2023-05-24T00:47:39.506Z,312.33
2023-05-24T00:50:09.650Z,314.27
2023-05-24T00:52:38.005Z,325.83
2023-05-24T00:55:07.111Z,315.17
2023-05-24T00:57:35.707Z,312.93
2023-05-24T01:00:06.137Z,308.73
2023-05-24T01:02:34.276Z,311.73
2023-05-24T01:05:02.914Z,316.13
2023-05-24T01:07:38.844Z,317.27
2023-05-24T01:10:14.531Z,318.87
2023-05-24T01:12:54.829Z,316.70
2023-05-24T01:15:30.841Z,318.83
2023-05-24T01:18:07.925Z,318.37
2023-05-24T01:20:38.824Z,312.13
2023-05-24T01:23:16.155Z,320.57
2023-05-24T01:25:51.165Z,314.53
2023-05-24T01:28:22.075Z,314.63
2023-05-24T01:30:50.805Z,315.07
2023-05-24T01:33:19.096Z,315.40
2023-05-24T01:35:47.138Z,316.43
2023-05-24T01:38:16.224Z,313.40
2023-05-24T01:40:45.316Z,316.90
2023-05-24T01:43:19.531Z,313.47
2023-05-24T01:46:00.986Z,325.40
2023-05-24T01:48:39.202Z,313.17
2023-05-24T01:51:08.761Z,311.10
2023-05-24T01:53:42.301Z,312.07
2023-05-24T01:56:12.222Z,310.43
2023-05-24T01:58:42.101Z,313.73
2023-05-24T02:01:14.480Z,311.17
2023-05-24T02:03:42.987Z,310.47
2023-05-24T02:06:11.700Z,311.83
2023-05-24T02:08:39.703Z,310.73
2023-05-24T02:11:07.834Z,311.30
2023-05-24T02:13:35.844Z,314.27
2023-05-24T02:16:05.160Z,312.67
2023-05-24T02:18:34.999Z,314.50
2023-05-24T02:21:03.332Z,314.33
2023-05-24T02:23:31.795Z,314.40
2023-05-24T02:25:59.850Z,313.60
2023-05-24T02:28:30.040Z,310.47
2023-05-24T02:30:58.122Z,312.43
2023-05-24T02:33:26.408Z,311.77
2023-05-24T02:35:55.881Z,311.23
2023-05-24T02:38:24.163Z,313.43
2023-05-24T02:40:52.179Z,310.97
2023-05-24T02:43:20.421Z,311.23
2023-05-24T02:45:48.457Z,312.53
2023-05-24T02:48:16.495Z,314.03
2023-05-24T02:50:44.712Z,312.87
2023-05-24T02:53:14.290Z,308.57
2023-05-24T02:55:43.974Z,311.23
2023-05-24T02:58:12.183Z,309.13
2023-05-24T03:00:40.326Z,317.90
2023-05-24T03:03:08.859Z,315.43
2023-05-24T03:05:36.938Z,310.93
2023-05-24T03:08:05.072Z,313.50
2023-05-24T03:10:34.433Z,312.80
2023-05-24T03:13:02.515Z,309.80
2023-05-24T03:15:30.686Z,312.13
2023-05-24T03:17:58.704Z,314.47
2023-05-24T03:20:26.838Z,313.27
2023-05-24T03:22:54.917Z,311.40
2023-05-24T03:25:23.216Z,314.43
2023-05-24T03:27:52.579Z,316.27
2023-05-24T03:30:20.690Z,314.33
2023-05-24T03:32:48.753Z,313.37
2023-05-24T03:35:16.888Z,317.17
2023-05-24T03:37:44.914Z,314.33
2023-05-24T03:40:13.360Z,312.77
2023-05-24T03:42:41.401Z,316.63
2023-05-24T03:45:11.931Z,314.60
2023-05-24T03:47:40.257Z,316.33
2023-05-24T03:50:09.165Z,308.87
2023-05-24T03:52:37.218Z,311.17
2023-05-24T03:55:05.717Z,313.60
2023-05-24T03:57:33.773Z,313.40
2023-05-24T04:00:01.801Z,311.77
2023-05-24T04:02:31.259Z,310.63
2023-05-24T04:04:59.344Z,319.20
2023-05-24T04:07:28.263Z,310.50
2023-05-24T04:09:56.264Z,312.93
2023-05-24T04:12:24.612Z,312.10
2023-05-24T04:14:52.861Z,318.03
2023-05-24T04:17:25.084Z,313.80
2023-05-24T04:19:54.772Z,314.87
2023-05-24T04:22:24.970Z,318.77
2023-05-24T04:24:53.837Z,320.13
2023-05-24T04:27:22.258Z,315.37
2023-05-24T04:29:50.576Z,316.70
2023-05-24T04:32:19.852Z,317.07
2023-05-24T04:34:47.876Z,314.83
2023-05-24T04:37:17.726Z,317.53
2023-05-24T04:39:46.180Z,324.97
2023-05-24T04:42:14.825Z,314.77
2023-05-24T04:44:43.089Z,312.97
2023-05-24T04:47:11.132Z,316.03
2023-05-24T04:49:39.659Z,317.93
2023-05-24T04:52:08.686Z,319.37
2023-05-24T04:54:38.665Z,318.83
2023-05-24T04:57:07.109Z,316.30
2023-05-24T04:59:35.164Z,318.90
2023-05-24T05:02:03.273Z,319.87
2023-05-24T05:04:31.320Z,320.63
2023-05-24T05:06:59.394Z,321.43
2023-05-24T05:09:28.193Z,325.83
2023-05-24T05:11:58.505Z,319.77
2023-05-24T05:14:26.556Z,325.03
2023-05-24T05:16:54.734Z,318.17
2023-05-24T05:19:22.905Z,319.13
2023-05-24T05:21:50.946Z,315.70
2023-05-24T05:24:20.430Z,325.23
2023-05-24T05:26:48.601Z,328.90
2023-05-24T05:29:17.969Z,320.80
2023-05-24T05:31:46.057Z,322.20
2023-05-24T05:34:14.126Z,318.13
2023-05-24T05:36:42.623Z,321.87
2023-05-24T05:39:10.924Z,319.13
2023-05-24T05:41:40.612Z,321.67
2023-05-24T05:44:08.679Z,319.07
2023-05-24T05:46:38.119Z,327.37
2023-05-24T05:49:06.236Z,322.37
2023-05-24T05:51:34.285Z,323.27
2023-05-24T05:54:02.309Z,321.47
2023-05-24T05:56:31.067Z,329.17
2023-05-24T05:58:59.114Z,324.60
2023-05-24T06:01:27.356Z,328.00
2023-05-24T06:03:56.821Z,323.87
2023-05-24T06:06:24.911Z,333.93
2023-05-24T06:08:52.894Z,328.83
2023-05-24T06:11:21.102Z,330.67
2023-05-24T06:13:49.145Z,326.73
2023-05-24T06:16:18.373Z,327.60
2023-05-24T06:18:57.116Z,329.73
2023-05-24T06:21:32.231Z,329.43
2023-05-24T06:24:00.371Z,329.77
2023-05-24T06:26:28.398Z,328.43
2023-05-24T06:28:56.792Z,331.97
2023-05-24T06:31:24.888Z,328.03
2023-05-24T06:34:03.940Z,330.30
2023-05-24T06:36:36.032Z,335.30
2023-05-24T06:39:04.803Z,336.97
2023-05-24T06:41:33.066Z,335.27
2023-05-24T06:44:01.076Z,341.63
2023-05-24T06:46:29.173Z,338.63
2023-05-24T06:48:57.316Z,334.63
2023-05-24T06:51:25.501Z,343.17
2023-05-24T06:53:54.945Z,339.97
2023-05-24T06:56:23.686Z,344.77
2023-05-24T06:58:51.715Z,343.83
2023-05-24T07:01:19.850Z,347.27
2023-05-24T07:03:47.990Z,353.63
2023-05-24T07:06:18.388Z,348.97
2023-05-24T07:08:46.610Z,347.67
2023-05-24T07:11:16.422Z,346.10
2023-05-24T07:13:44.488Z,352.70
2023-05-24T07:16:12.828Z,348.13
2023-05-24T07:18:41.801Z,350.20
2023-05-24T07:21:10.074Z,349.60
2023-05-24T07:23:38.794Z,349.70
2023-05-24T07:26:07.499Z,351.63
2023-05-24T07:28:37.959Z,371.37
2023-05-24T07:31:08.162Z,356.67
2023-05-24T07:33:38.491Z,358.33
2023-05-24T07:36:07.261Z,357.87
2023-05-24T07:38:36.072Z,359.20
2023-05-24T07:41:04.820Z,357.10
2023-05-24T07:43:32.961Z,370.33
2023-05-24T07:46:02.877Z,371.17
2023-05-24T07:48:31.010Z,361.33
2023-05-24T07:50:59.045Z,370.07
2023-05-24T07:53:27.388Z,369.73
2023-05-24T07:55:56.470Z,369.87
2023-05-24T07:58:24.549Z,368.43
2023-05-24T08:00:53.218Z,374.57
2023-05-24T08:03:25.934Z,373.97
2023-05-24T08:05:54.185Z,370.47
2023-05-24T08:08:22.551Z,366.70
2023-05-24T08:10:50.669Z,374.07
2023-05-24T08:13:18.844Z,369.10
2023-05-24T08:15:47.013Z,375.87
2023-05-24T08:18:15.101Z,374.40
2023-05-24T08:20:44.561Z,371.23
2023-05-24T08:23:12.695Z,368.80
2023-05-24T08:25:41.207Z,376.90
2023-05-24T08:28:11.047Z,369.13
2023-05-24T08:30:39.528Z,367.63
2023-05-24T08:33:07.591Z,374.80
2023-05-24T08:35:36.016Z,367.47
2023-05-24T08:38:05.466Z,375.07
2023-05-24T08:40:33.528Z,377.10
2023-05-24T08:43:03.171Z,373.43
2023-05-24T08:45:32.077Z,383.07
2023-05-24T08:48:01.625Z,371.53
2023-05-24T08:50:31.293Z,374.53
2023-05-24T08:53:02.053Z,376.87
2023-05-24T08:55:33.444Z,368.37
2023-05-24T08:58:02.161Z,369.87
2023-05-24T09:00:30.296Z,368.80
2023-05-24T09:02:59.937Z,377.00
2023-05-24T09:05:30.398Z,376.13
2023-05-24T09:08:00.964Z,376.57
2023-05-24T09:10:44.963Z,381.47
2023-05-24T09:13:23.868Z,381.27
2023-05-24T09:15:52.289Z,383.10
2023-05-24T09:18:20.458Z,382.77
2023-05-24T09:20:48.773Z,387.00
2023-05-24T09:23:17.649Z,389.07
2023-05-24T09:25:48.427Z,389.87
2023-05-24T09:28:18.143Z,391.23
2023-05-24T09:30:47.496Z,398.33
2023-05-24T09:33:15.559Z,404.23
2023-05-24T09:35:44.571Z,414.35
2023-05-24T09:38:19.437Z,419.60
2023-05-24T09:40:48.825Z,416.92
2023-05-24T09:43:16.877Z,415.03
2023-05-24T09:45:47.135Z,421.73
2023-05-24T09:48:17.265Z,421.35
2023-05-24T09:50:47.841Z,411.08
2023-05-24T09:53:18.657Z,414.88
2023-05-24T09:55:48.816Z,407.17
2023-05-24T09:58:18.485Z,412.07
2023-05-24T10:00:47.129Z,421.67
2023-05-24T10:03:16.214Z,417.40
2023-05-24T10:05:46.797Z,424.52
2023-05-24T10:08:15.473Z,427.13
2023-05-24T10:10:44.610Z,427.63
2023-05-24T10:13:16.038Z,425.80
2023-05-24T10:15:44.951Z,427.40
2023-05-24T10:18:14.095Z,422.75
2023-05-24T10:20:43.226Z,424.75
2023-05-24T10:23:12.077Z,426.20
2023-05-24T10:25:46.715Z,447.52
2023-05-24T10:28:18.029Z,457.27
2023-05-24T10:31:02.887Z,473.80
2023-05-24T10:33:33.512Z,487.27
2023-05-24T10:36:01.986Z,485.45
2023-05-24T10:38:31.423Z,493.67
2023-05-24T10:40:59.830Z,481.38
2023-05-24T10:43:29.295Z,489.25
2023-05-24T10:45:57.587Z,501.05
2023-05-24T10:48:39.296Z,493.83
2023-05-24T10:51:30.863Z,492.13
2023-05-24T10:53:59.584Z,478.98
2023-05-24T10:56:29.166Z,476.65
2023-05-24T10:59:02.433Z,470.88
2023-05-24T11:01:32.365Z,469.75
2023-05-24T11:04:11.176Z,461.52
2023-05-24T11:06:49.631Z,461.52
2023-05-24T11:09:20.057Z,445.58
2023-05-24T11:11:50.051Z,450.05
2023-05-24T11:14:25.312Z,452.60
2023-05-24T11:16:53.494Z,435.42
2023-05-24T11:19:22.972Z,441.03
2023-05-24T11:21:53.231Z,434.48
2023-05-24T11:24:22.333Z,431.20
2023-05-24T11:26:52.145Z,423.75
2023-05-24T11:29:22.749Z,425.07
2023-05-24T11:31:52.575Z,424.60
2023-05-24T11:34:21.231Z,423.70
2023-05-24T11:36:50.038Z,433.50
2023-05-24T11:39:18.241Z,433.15
2023-05-24T11:41:46.345Z,439.33
2023-05-24T11:44:19.014Z,443.27
2023-05-24T11:46:48.452Z,443.33
2023-05-24T11:49:17.731Z,440.48
2023-05-24T11:51:45.774Z,449.40
2023-05-24T11:54:13.867Z,455.92
2023-05-24T11:56:41.908Z,444.60
2023-05-24T11:59:17.609Z,454.08
2023-05-24T12:01:45.953Z,453.08
2023-05-24T12:04:15.512Z,462.25
2023-05-24T12:06:46.155Z,472.92
2023-05-24T12:09:14.711Z,468.15
2023-05-24T12:11:44.590Z,476.23
2023-05-24T12:14:16.311Z,478.08
2023-05-24T12:16:45.507Z,474.45
2023-05-24T12:21:57.646Z,465.77
2023-05-24T12:24:27.658Z,471.60
2023-05-24T12:27:02.189Z,470.70
2023-05-24T12:29:35.198Z,469.50
2023-05-24T12:32:03.628Z,468.90
2023-05-24T12:34:33.901Z,480.75
2023-05-24T12:37:01.976Z,478.80
2023-05-24T12:39:31.754Z,483.63
2023-05-24T12:42:02.918Z,481.52
2023-05-24T12:44:32.972Z,476.27
2023-05-24T12:47:03.222Z,465.88
2023-05-24T12:49:32.921Z,454.65
2023-05-24T12:52:01.815Z,458.83
2023-05-24T12:54:30.493Z,456.83
2023-05-24T12:57:03.779Z,468.40
2023-05-24T12:59:32.013Z,471.48
2023-05-24T13:02:00.430Z,489.65
2023-05-24T13:04:30.511Z,506.38
2023-05-24T13:07:00.403Z,515.20
2023-05-24T13:09:28.551Z,524.13
2023-05-24T13:11:56.891Z,541.30
2023-05-24T13:14:24.926Z,555.88
2023-05-24T13:16:53.346Z,551.80
2023-05-24T13:19:21.696Z,555.50
2023-05-24T13:21:49.721Z,551.42
2023-05-24T13:24:20.247Z,544.65
2023-05-24T13:26:49.321Z,542.22
2023-05-24T13:29:34.223Z,535.65
2023-05-24T13:32:06.840Z,519.63
2023-05-24T13:34:34.936Z,518.97
2023-05-24T13:37:03.013Z,506.52
2023-05-24T13:39:32.444Z,495.38
2023-05-24T13:42:00.903Z,494.98
2023-05-24T13:44:29.505Z,485.98
2023-05-24T13:46:57.699Z,486.55
2023-05-24T13:49:25.812Z,486.92
2023-05-24T13:51:57.201Z,489.98
2023-05-24T13:54:26.468Z,495.05
2023-05-24T13:56:57.537Z,497.80
2023-05-24T13:59:25.813Z,504.70
2023-05-24T14:01:54.087Z,511.13
2023-05-24T14:04:22.372Z,511.08
2023-05-24T14:06:50.423Z,506.58
2023-05-24T14:09:18.448Z,508.35
2023-05-24T14:11:46.533Z,513.65
2023-05-24T14:16:51.566Z,509.67
2023-05-24T14:19:19.728Z,508.30
2023-05-24T14:21:47.773Z,496.58
2023-05-24T14:24:15.904Z,497.98
2023-05-24T14:26:43.951Z,492.17
2023-05-24T14:29:11.977Z,486.38
2023-05-24T14:31:42.992Z,492.08
2023-05-24T14:34:11.978Z,487.63
2023-05-24T14:36:41.624Z,486.90
2023-05-24T14:39:10.219Z,477.40
2023-05-24T14:41:38.225Z,483.83
2023-05-24T14:44:07.444Z,487.27
2023-05-24T14:46:35.892Z,486.85
2023-05-24T14:49:05.741Z,500.42
2023-05-24T14:51:33.813Z,506.30
2023-05-24T14:54:02.023Z,522.15
2023-05-24T14:56:30.129Z,530.47
2023-05-24T14:58:59.359Z,551.92
2023-05-24T15:01:27.641Z,561.55
2023-05-24T15:03:55.855Z,573.67
2023-05-24T15:06:25.470Z,586.88
2023-05-24T15:08:53.571Z,496.33
2023-05-24T15:11:23.059Z,473.25
2023-05-24T15:13:55.402Z,345.67
2023-05-24T15:16:23.516Z,344.98
2023-05-24T15:18:52.900Z,642.47
2023-05-24T15:21:21.184Z,635.85
2023-05-24T15:23:50.599Z,618.30
2023-05-24T15:26:18.869Z,603.28
2023-05-24T15:28:46.897Z,615.22
2023-05-24T15:31:14.972Z,639.58
2023-05-24T15:33:43.042Z,659.75
2023-05-24T15:36:14.256Z,674.63
2023-05-24T15:38:43.003Z,683.88
2023-05-24T15:41:12.452Z,705.30
2023-05-24T15:43:41.622Z,715.30
2023-05-24T15:46:09.672Z,716.85
2023-05-24T15:48:37.738Z,723.75
2023-05-24T15:51:57.984Z,741.67
2023-05-24T15:53:55.503Z,753.67
2023-05-24T15:56:24.966Z,757.17
2023-05-24T15:58:53.029Z,761.63
2023-05-24T16:01:21.298Z,775.33
2023-05-24T16:03:49.482Z,771.70
2023-05-24T16:06:17.676Z,781.13
2023-05-24T16:08:45.905Z,767.35
2023-05-24T16:11:13.914Z,763.65
2023-05-24T16:13:43.306Z,742.85
2023-05-24T16:16:11.541Z,731.40
2023-05-24T16:18:39.565Z,705.45
2023-05-24T16:21:07.632Z,702.03
2023-05-24T16:23:35.663Z,685.88
2023-05-24T16:26:03.677Z,680.80
2023-05-24T16:28:31.788Z,699.20
2023-05-24T16:31:03.170Z,676.75
2023-05-24T16:33:31.272Z,703.67
2023-05-24T16:36:02.914Z,753.97
2023-05-24T16:38:31.498Z,783.70
2023-05-24T16:40:59.659Z,775.08
2023-05-24T16:43:27.727Z,786.90
2023-05-24T16:45:57.852Z,773.95
2023-05-24T16:48:29.142Z,782.08
2023-05-24T16:50:57.688Z,774.63
2023-05-24T16:53:27.050Z,766.47
2023-05-24T16:55:55.902Z,781.88
2023-05-24T16:58:24.809Z,783.90
2023-05-24T17:00:54.640Z,782.75
2023-05-24T17:03:27.865Z,770.28
2023-05-24T17:06:03.274Z,759.60
2023-05-24T17:08:34.129Z,768.05
2023-05-24T17:11:02.286Z,763.58
2023-05-24T17:13:30.572Z,787.60
2023-05-24T17:15:59.983Z,791.05
2023-05-24T17:18:31.492Z,794.30
2023-05-24T17:21:02.493Z,804.25
2023-05-24T17:23:32.825Z,802.35
2023-05-24T17:26:02.677Z,795.53
2023-05-24T17:28:31.228Z,784.38
2023-05-24T17:31:00.947Z,771.70
2023-05-24T17:33:29.936Z,760.67
2023-05-24T17:35:58.374Z,746.38
2023-05-24T17:38:28.832Z,731.35
2023-05-24T17:40:59.847Z,712.20
2023-05-24T17:43:31.954Z,693.72
2023-05-24T17:46:05.925Z,695.67
2023-05-24T17:48:35.692Z,692.10
2023-05-24T17:51:06.441Z,693.90
2023-05-24T17:53:38.795Z,702.78
2023-05-24T17:56:07.715Z,710.67
2023-05-24T17:58:37.221Z,723.70
2023-05-24T18:01:06.999Z,723.60
2023-05-24T18:03:36.767Z,724.20
2023-05-24T18:06:06.873Z,719.80
2023-05-24T18:08:38.663Z,713.30
2023-05-24T18:11:09.842Z,712.63
2023-05-24T18:13:39.323Z,722.78
2023-05-24T18:16:07.867Z,704.83
2023-05-24T18:18:35.900Z,693.60
2023-05-24T18:21:04.020Z,675.67
2023-05-24T18:23:34.099Z,672.17
2023-05-24T18:26:03.791Z,661.80
2023-05-24T18:28:31.856Z,646.78
2023-05-24T18:30:59.910Z,620.20
2023-05-24T18:33:28.000Z,603.88
2023-05-24T18:35:56.450Z,577.88
2023-05-24T18:38:24.607Z,563.67
2023-05-24T18:40:52.773Z,543.58
2023-05-24T18:43:22.216Z,527.00
2023-05-24T18:45:50.580Z,518.45
2023-05-24T18:48:18.673Z,500.52
2023-05-24T18:50:49.949Z,487.23
2023-05-24T18:53:17.988Z,481.87
2023-05-24T18:55:46.990Z,471.00
2023-05-24T18:58:15.611Z,456.40
2023-05-24T19:00:45.053Z,449.27
2023-05-24T19:03:14.189Z,436.73
2023-05-24T19:05:44.021Z,438.13
2023-05-24T19:08:12.820Z,430.37
2023-05-24T19:10:41.321Z,423.53
2023-05-24T19:13:09.404Z,410.13
2023-05-24T19:15:37.808Z,399.07
2023-05-24T19:18:07.703Z,397.90
2023-05-24T19:20:36.049Z,402.57
2023-05-24T19:23:04.205Z,387.77
2023-05-24T19:25:32.269Z,392.53
2023-05-24T19:28:00.872Z,391.30
2023-05-24T19:30:29.230Z,388.43
2023-05-24T19:32:57.290Z,387.50
2023-05-24T19:35:26.676Z,381.03
2023-05-24T19:37:54.754Z,380.73
2023-05-24T19:40:22.814Z,380.27
2023-05-24T19:42:50.858Z,376.03
2023-05-24T19:45:19.108Z,382.13
2023-05-24T19:47:47.222Z,375.07
2023-05-24T19:50:15.248Z,378.53
2023-05-24T19:52:44.807Z,379.50
2023-05-24T19:55:12.839Z,404.50
2023-05-24T19:57:40.865Z,375.03
2023-05-24T20:00:09.640Z,382.10
2023-05-24T20:02:37.753Z,374.33
2023-05-24T20:05:06.770Z,372.40
2023-05-24T20:07:34.799Z,379.80
2023-05-24T20:10:05.189Z,371.27
2023-05-24T20:12:34.498Z,372.23
2023-05-24T20:15:02.661Z,365.30
2023-05-24T20:17:30.788Z,371.47
2023-05-24T20:19:58.925Z,530.53
2023-05-24T20:22:27.031Z,393.57
2023-05-24T20:24:55.086Z,372.50
2023-05-24T20:27:24.480Z,393.73
2023-05-24T20:29:52.507Z,366.23
2023-05-24T20:32:21.375Z,380.90
2023-05-24T20:34:49.426Z,367.13
2023-05-24T20:37:17.439Z,361.10
2023-05-24T20:39:45.452Z,359.27
2023-05-24T20:42:13.490Z,360.27
2023-05-24T20:44:42.872Z,360.83
2023-05-24T20:47:10.946Z,355.77
2023-05-24T20:49:39.124Z,358.97
2023-05-24T20:52:07.508Z,358.73
2023-05-24T20:54:36.066Z,359.03
2023-05-24T20:57:04.213Z,359.17
2023-05-24T20:59:32.241Z,359.90
2023-05-24T21:02:01.681Z,362.37
2023-05-24T21:04:29.739Z,359.90
2023-05-24T21:06:57.827Z,354.63
2023-05-24T21:09:25.822Z,355.27
2023-05-24T21:11:53.846Z,358.87
2023-05-24T21:14:21.909Z,362.73
2023-05-24T21:16:49.933Z,360.37
2023-05-24T21:19:19.458Z,355.93
2023-05-24T21:21:47.506Z,354.53
2023-05-24T21:24:16.111Z,360.63
2023-05-24T21:26:44.133Z,355.60
2023-05-24T21:29:13.186Z,352.17
2023-05-24T21:31:41.395Z,358.97
2023-05-24T21:34:09.548Z,353.20
2023-05-24T21:36:38.951Z,348.50
2023-05-24T21:39:08.321Z,349.47
2023-05-24T21:41:37.180Z,351.43
2023-05-24T21:44:07.318Z,352.53
2023-05-24T21:46:36.305Z,354.40
2023-05-24T21:49:06.954Z,353.53
2023-05-24T21:51:35.038Z,346.17
2023-05-24T21:54:04.655Z,345.23
2023-05-24T21:56:32.724Z,348.93
2023-05-24T21:59:00.717Z,346.87
2023-05-24T22:01:29.331Z,347.70
2023-05-24T22:03:57.654Z,349.47
2023-05-24T22:06:25.796Z,355.27
2023-05-24T22:08:53.836Z,346.57
2023-05-24T22:11:23.428Z,345.27
2023-05-24T22:13:51.501Z,348.03
2023-05-24T22:16:19.638Z,347.30
2023-05-24T22:18:47.918Z,344.93
2023-05-24T22:21:15.979Z,346.50
2023-05-24T22:23:44.044Z,344.67
2023-05-24T22:26:12.916Z,345.60
2023-05-24T22:28:55.880Z,348.33
2023-05-24T22:31:24.185Z,345.67
2023-05-24T22:33:52.521Z,347.67
2023-05-24T22:36:20.962Z,347.40
2023-05-24T22:38:49.299Z,329.40
2023-05-24T22:41:17.390Z,332.53
2023-05-24T22:43:45.450Z,349.00
2023-05-24T22:46:14.937Z,347.37
2023-05-24T22:48:43.090Z,344.20
2023-05-24T22:51:12.195Z,340.07
2023-05-24T22:53:40.322Z,345.47
2023-05-24T22:56:10.408Z,345.63
2023-05-24T22:58:39.092Z,348.60
2023-05-24T23:01:07.225Z,341.73
2023-05-24T23:03:37.031Z,334.00
2023-05-24T23:06:05.531Z,338.30
2023-05-24T23:08:34.215Z,340.13
2023-05-24T23:11:10.233Z,336.00
2023-05-24T23:13:38.457Z,339.60
2023-05-24T23:16:07.113Z,338.87
2023-05-24T23:18:37.756Z,349.57
2023-05-24T23:21:06.138Z,338.63
2023-05-24T23:23:34.166Z,334.73
2023-05-24T23:26:02.186Z,335.87
2023-05-24T23:28:30.437Z,333.83
2023-05-24T23:30:58.556Z,335.67
2023-05-24T23:33:26.544Z,337.20
2023-05-24T23:35:55.998Z,338.13
2023-05-24T23:38:24.040Z,326.17
2023-05-24T23:40:52.069Z,332.77
2023-05-24T23:43:20.103Z,337.53
2023-05-24T23:45:48.162Z,332.40
2023-05-24T23:48:16.226Z,335.80
2023-05-24T23:50:53.435Z,336.70
2023-05-24T23:53:23.643Z,337.90
2023-05-24T23:55:51.680Z,333.77
2023-05-24T23:58:19.745Z,335.83
